Time;durP1;ratioP1;P1;durP2;ratioP2;P2;SDS_P1;SDS_P2;PMS_P1;PMS_P2;Temp;Humidity;BMP_temperature;BMP_pressure;BME280_temperature;BME280_humidity;BME280_pressure;Samples;Min_cycle;Max_cycle;Signal;HPM_P1;HPM_P2
2024/01/21 00:00:57;;;;;;;31.83;14.37;;;-1.50;90.20;;;;;;808340;175;26425;-77
2024/01/21 00:03:53;;;;;;;31.20;14.47;;;-1.50;90.70;;;;;;802422;176;26411;-78
2024/01/21 00:06:23;;;;;;;32.97;14.63;;;-1.50;90.00;;;;;;808415;176;26421;-79
2024/01/21 00:08:50;;;;;;;34.70;14.13;;;-1.50;90.80;;;;;;807779;175;26427;-77
2024/01/21 00:11:20;;;;;;;31.00;14.17;;;-1.40;90.20;;;;;;804773;176;26467;-80
2024/01/21 00:13:46;;;;;;;32.67;15.17;;;-1.40;90.20;;;;;;809954;174;26440;-78
2024/01/21 00:16:13;;;;;;;35.60;15.03;;;-1.40;89.70;;;;;;807551;176;26413;-75
2024/01/21 00:18:41;;;;;;;36.87;15.63;;;-1.40;89.20;;;;;;806022;176;26499;-78
2024/01/21 00:21:16;;;;;;;36.27;16.13;;;-1.40;90.00;;;;;;808639;176;26432;-81
2024/01/21 00:23:44;;;;;;;35.93;15.27;;;-1.30;90.40;;;;;;810983;176;26418;-78
2024/01/21 00:26:09;;;;;;;37.87;15.87;;;-1.40;90.20;;;;;;805768;177;26474;-77
2024/01/21 00:28:35;;;;;;;36.27;16.23;;;-1.40;90.40;;;;;;804241;175;26474;-79
2024/01/21 00:31:03;;;;;;;38.87;16.53;;;-1.30;90.30;;;;;;806277;176;26463;-79
2024/01/21 00:33:29;;;;;;;39.83;17.50;;;-1.40;90.30;;;;;;810080;177;26423;-77
2024/01/21 00:35:56;;;;;;;37.70;16.70;;;-1.30;91.00;;;;;;808192;176;26412;-80
2024/01/21 00:38:23;;;;;;;40.80;17.20;;;-1.30;92.00;;;;;;815193;175;26437;-80
2024/01/21 00:40:50;;;;;;;42.20;17.70;;;-1.20;90.90;;;;;;805956;176;26457;-78
2024/01/21 00:43:17;;;;;;;42.67;17.60;;;-1.20;90.30;;;;;;803663;176;26453;-79
2024/01/21 00:45:43;;;;;;;44.90;17.63;;;-1.20;91.00;;;;;;806081;176;26458;-78
2024/01/21 00:48:10;;;;;;;45.57;18.27;;;-1.20;90.80;;;;;;805504;176;26522;-80
2024/01/21 00:50:37;;;;;;;41.93;18.07;;;-1.10;90.10;;;;;;807004;176;26415;-78
2024/01/21 00:53:03;;;;;;;45.17;18.70;;;-1.10;91.00;;;;;;800115;176;26429;-77
2024/01/21 00:55:30;;;;;;;43.27;19.27;;;-1.20;91.20;;;;;;802910;176;26577;-74
2024/01/21 00:57:57;;;;;;;48.83;19.80;;;-1.10;91.70;;;;;;810541;175;26452;-77
2024/01/21 01:00:25;;;;;;;46.47;20.70;;;-1.00;92.00;;;;;;806292;176;26487;-78
2024/01/21 01:02:50;;;;;;;43.53;19.00;;;-1.10;91.30;;;;;;808266;176;26424;-79
2024/01/21 01:05:17;;;;;;;44.80;18.00;;;-1.00;90.00;;;;;;811318;176;26444;-78
2024/01/21 01:07:43;;;;;;;47.80;19.27;;;-1.00;90.20;;;;;;807486;177;26444;-79
2024/01/21 01:10:10;;;;;;;43.67;18.50;;;-1.00;90.00;;;;;;803509;176;26418;-78
2024/01/21 01:12:36;;;;;;;49.07;19.43;;;-1.00;90.20;;;;;;811225;170;26469;-78
2024/01/21 01:15:04;;;;;;;50.10;21.47;;;-0.90;90.40;;;;;;787792;180;26507;-79
2024/01/21 01:17:30;;;;;;;44.70;19.43;;;-0.90;91.40;;;;;;794673;177;26539;-76
2024/01/21 01:19:57;;;;;;;46.93;19.83;;;-0.90;90.30;;;;;;803160;177;26990;-76
2024/01/21 01:22:23;;;;;;;47.97;18.90;;;-1.00;90.10;;;;;;790506;179;26445;-76
2024/01/21 01:24:50;;;;;;;45.37;19.00;;;-0.90;90.00;;;;;;808832;176;26470;-78
2024/01/21 01:27:16;;;;;;;42.60;19.50;;;-0.90;90.20;;;;;;805780;177;26450;-77
2024/01/21 01:29:43;;;;;;;44.37;18.47;;;-0.90;89.80;;;;;;804013;178;26457;-76
2024/01/21 01:32:10;;;;;;;49.23;21.00;;;-0.90;89.10;;;;;;790848;180;26474;-77
2024/01/21 01:34:36;;;;;;;47.83;19.90;;;-0.80;90.00;;;;;;805380;176;26435;-77
2024/01/21 01:37:03;;;;;;;48.30;18.93;;;-0.80;90.80;;;;;;807809;177;26443;-77
2024/01/21 01:39:29;;;;;;;43.50;19.10;;;-0.80;90.60;;;;;;804240;177;28045;-78
2024/01/21 01:41:56;;;;;;;47.03;19.67;;;-0.80;90.90;;;;;;805918;177;26435;-78
2024/01/21 01:44:23;;;;;;;44.03;19.67;;;-0.70;90.20;;;;;;806590;177;27045;-80
2024/01/21 01:46:49;;;;;;;43.83;19.80;;;-0.70;90.30;;;;;;803644;177;26456;-78
2024/01/21 01:49:16;;;;;;;48.87;20.03;;;-0.70;90.00;;;;;;796082;179;26484;-78
2024/01/21 01:51:42;;;;;;;45.20;19.57;;;-0.70;89.90;;;;;;786799;180;26503;-78
2024/01/21 01:54:09;;;;;;;43.53;18.97;;;-0.70;87.80;;;;;;801458;176;26469;-76
2024/01/21 01:56:35;;;;;;;43.07;18.57;;;-0.60;88.80;;;;;;804590;177;26486;-78
2024/01/21 01:59:06;;;;;;;45.37;18.77;;;-0.50;89.20;;;;;;796860;179;26455;-78
2024/01/21 02:01:29;;;;;;;46.07;20.50;;;-0.60;89.00;;;;;;802617;176;26450;-79
2024/01/21 02:03:55;;;;;;;46.97;21.33;;;-0.50;87.80;;;;;;803822;178;26476;-78
2024/01/21 02:06:22;;;;;;;46.57;20.00;;;-0.50;89.20;;;;;;799569;177;26473;-77
2024/01/21 02:08:48;;;;;;;49.87;19.67;;;-0.50;89.20;;;;;;812096;175;26493;-77
2024/01/21 02:11:15;;;;;;;57.13;21.43;;;-0.50;88.10;;;;;;809262;176;26460;-76
2024/01/21 02:13:42;;;;;;;44.40;19.20;;;-0.60;88.10;;;;;;792044;179;26490;-76
2024/01/21 02:16:08;;;;;;;45.83;20.47;;;-0.50;88.40;;;;;;810397;176;26447;-76
2024/01/21 02:18:35;;;;;;;42.60;18.33;;;-0.50;90.00;;;;;;804978;177;26996;-76
2024/01/21 02:21:01;;;;;;;48.93;18.80;;;-0.50;88.40;;;;;;795623;180;26474;-78
2024/01/21 02:23:29;;;;;;;44.50;20.37;;;-0.50;88.10;;;;;;813927;176;26430;-78
2024/01/21 02:25:55;;;;;;;42.33;19.27;;;-0.50;88.90;;;;;;809779;176;26453;-77
2024/01/21 02:28:21;;;;;;;41.23;18.83;;;-0.50;87.80;;;;;;798936;179;26456;-78
2024/01/21 02:30:48;;;;;;;39.00;18.20;;;-0.50;88.20;;;;;;797302;179;26454;-78
2024/01/21 02:33:14;;;;;;;46.80;19.00;;;-0.50;89.40;;;;;;807751;176;26456;-77
2024/01/21 02:35:41;;;;;;;40.33;18.53;;;-0.50;89.70;;;;;;806561;176;26458;-79
2024/01/21 02:38:08;;;;;;;46.83;17.47;;;-0.50;90.00;;;;;;787536;180;26475;-76
2024/01/21 02:40:35;;;;;;;39.93;17.50;;;-0.50;87.50;;;;;;807385;176;26450;-78
2024/01/21 02:43:03;;;;;;;44.47;20.10;;;-0.40;87.90;;;;;;796674;177;26484;-78
2024/01/21 02:45:29;;;;;;;45.90;18.77;;;-0.40;88.80;;;;;;810526;176;26485;-80
2024/01/21 02:47:56;;;;;;;39.67;18.43;;;-0.40;89.20;;;;;;811363;173;26454;-77
2024/01/21 02:50:24;;;;;;;46.00;19.50;;;-0.40;86.60;;;;;;790132;179;26519;-77
2024/01/21 02:52:51;;;;;;;44.27;17.93;;;-0.40;87.40;;;;;;805442;176;27021;-77
2024/01/21 02:55:17;;;;;;;37.93;16.70;;;-0.40;88.00;;;;;;790048;180;26484;-78
2024/01/21 02:57:45;;;;;;;38.87;16.77;;;-0.40;85.30;;;;;;811435;176;27004;-78
2024/01/21 03:00:12;;;;;;;41.37;16.03;;;-0.40;86.80;;;;;;807359;176;26449;-77
2024/01/21 03:02:39;;;;;;;37.33;16.13;;;-0.40;84.70;;;;;;814979;176;26537;-77
2024/01/21 03:05:06;;;;;;;36.93;15.67;;;-0.40;85.40;;;;;;790200;180;26625;-77
2024/01/21 03:07:33;;;;;;;37.67;17.97;;;-0.40;85.50;;;;;;811665;176;26455;-78
2024/01/21 03:10:00;;;;;;;41.93;17.77;;;-0.40;85.80;;;;;;805375;176;26429;-75
2024/01/21 03:12:26;;;;;;;41.33;18.17;;;-0.40;84.50;;;;;;786494;180;26575;-76
2024/01/21 03:14:53;;;;;;;33.97;15.07;;;-0.40;85.90;;;;;;808628;175;26440;-76
2024/01/21 03:17:21;;;;;;;40.50;17.27;;;-0.40;86.50;;;;;;810118;175;26502;-76
2024/01/21 03:19:48;;;;;;;42.20;16.33;;;-0.40;86.20;;;;;;795124;179;26462;-77
2024/01/21 03:22:14;;;;;;;41.93;17.17;;;-0.40;85.80;;;;;;808162;176;26470;-76
2024/01/21 03:24:41;;;;;;;40.87;16.63;;;-0.40;86.50;;;;;;788396;180;26519;-76
2024/01/21 03:27:07;;;;;;;42.40;18.40;;;-0.40;86.90;;;;;;807545;175;26521;-76
2024/01/21 03:29:34;;;;;;;39.83;17.63;;;-0.50;86.00;;;;;;798160;177;26492;-77
2024/01/21 03:32:01;;;;;;;41.37;16.60;;;-0.50;87.30;;;;;;791612;179;26521;-76
2024/01/21 03:34:27;;;;;;;44.87;18.93;;;-0.50;86.80;;;;;;812144;176;26515;-76
2024/01/21 03:36:54;;;;;;;47.87;19.20;;;-0.50;89.40;;;;;;803127;176;26951;-77
2024/01/21 03:39:20;;;;;;;43.87;18.23;;;-0.60;89.30;;;;;;807502;176;26469;-76
2024/01/21 03:41:47;;;;;;;36.77;17.47;;;-0.60;87.50;;;;;;810043;176;26972;-77
2024/01/21 03:44:14;;;;;;;41.47;17.63;;;-0.60;88.90;;;;;;808347;176;26501;-77
2024/01/21 03:46:40;;;;;;;41.50;17.90;;;-0.70;87.80;;;;;;808986;176;26997;-77
2024/01/21 03:49:07;;;;;;;43.63;17.20;;;-0.60;89.50;;;;;;803542;176;26509;-77
2024/01/21 03:51:33;;;;;;;41.43;16.97;;;-0.70;88.30;;;;;;807839;176;27000;-77
2024/01/21 03:54:00;;;;;;;43.93;18.37;;;-0.70;87.50;;;;;;791170;180;26474;-76
2024/01/21 03:56:27;;;;;;;38.93;17.20;;;-0.70;87.10;;;;;;801489;174;26494;-78
2024/01/21 03:58:53;;;;;;;43.93;17.70;;;-0.80;87.80;;;;;;790822;180;26507;-77
2024/01/21 04:01:20;;;;;;;39.43;17.73;;;-0.70;86.90;;;;;;804341;176;26486;-77
2024/01/21 04:03:46;;;;;;;39.50;16.80;;;-0.70;88.90;;;;;;790004;180;26725;-76
2024/01/21 04:06:13;;;;;;;40.33;17.13;;;-0.80;88.60;;;;;;808116;175;26531;-75
2024/01/21 04:08:39;;;;;;;36.80;14.40;;;-0.80;86.80;;;;;;807741;176;26434;-78
2024/01/21 04:11:06;;;;;;;41.40;17.67;;;-0.70;87.20;;;;;;788140;180;26457;-80
2024/01/21 04:13:33;;;;;;;46.27;18.57;;;-0.80;87.30;;;;;;807120;173;26470;-80
2024/01/21 04:15:59;;;;;;;36.27;16.07;;;-0.80;86.30;;;;;;792295;179;26465;-80
2024/01/21 04:18:26;;;;;;;36.60;16.63;;;-0.80;87.10;;;;;;809650;176;26440;-80
2024/01/21 04:20:52;;;;;;;43.30;17.23;;;-0.80;87.40;;;;;;806013;176;26434;-79
2024/01/21 04:23:19;;;;;;;36.20;16.63;;;-0.80;86.50;;;;;;790646;177;26567;-80
2024/01/21 04:25:46;;;;;;;44.80;18.43;;;-0.80;85.80;;;;;;793670;180;26519;-77
2024/01/21 04:28:12;;;;;;;39.50;16.43;;;-0.80;88.10;;;;;;806796;176;26442;-79
2024/01/21 04:30:39;;;;;;;40.27;15.47;;;-0.70;88.50;;;;;;810667;176;26430;-77
2024/01/21 04:33:05;;;;;;;40.20;16.17;;;-0.80;86.30;;;;;;807852;176;27023;-77
2024/01/21 04:35:32;;;;;;;37.60;16.50;;;-0.80;85.30;;;;;;806240;176;26552;-77
2024/01/21 04:37:59;;;;;;;37.73;15.20;;;-0.80;86.20;;;;;;806320;176;26972;-76
2024/01/21 04:40:26;;;;;;;32.80;15.97;;;-0.70;86.30;;;;;;806370;177;26513;-78
2024/01/21 04:42:52;;;;;;;33.47;13.77;;;-0.70;85.30;;;;;;808843;177;26991;-78
2024/01/21 04:45:19;;;;;;;33.37;14.80;;;-0.60;85.00;;;;;;795918;179;26495;-78
2024/01/21 04:47:45;;;;;;;34.73;15.60;;;-0.60;85.80;;;;;;809353;176;26578;-77
2024/01/21 04:50:12;;;;;;;42.63;15.97;;;-0.60;86.70;;;;;;812295;176;26428;-78
2024/01/21 04:52:38;;;;;;;32.17;13.23;;;-0.50;84.70;;;;;;792813;180;26524;-77
2024/01/21 04:55:05;;;;;;;31.47;14.50;;;-0.50;83.80;;;;;;809291;176;26438;-77
2024/01/21 04:57:32;;;;;;;38.67;15.43;;;-0.50;83.20;;;;;;790863;179;26492;-75
2024/01/21 04:59:58;;;;;;;34.47;14.83;;;-0.50;84.30;;;;;;809322;176;26506;-78
2024/01/21 05:02:25;;;;;;;36.23;15.57;;;-0.50;83.50;;;;;;791403;180;26471;-79
2024/01/21 05:04:52;;;;;;;34.17;14.70;;;-0.50;84.30;;;;;;807811;175;26436;-79
2024/01/21 05:07:18;;;;;;;31.70;14.93;;;-0.40;85.20;;;;;;794675;179;26539;-78
2024/01/21 05:09:45;;;;;;;37.33;15.73;;;-0.40;83.20;;;;;;788453;180;26581;-77
2024/01/21 05:12:11;;;;;;;32.53;13.80;;;-0.40;84.60;;;;;;811163;176;26504;-77
2024/01/21 05:14:38;;;;;;;27.13;12.73;;;-0.40;83.20;;;;;;792389;179;26514;-76
2024/01/21 05:17:05;;;;;;;32.63;14.00;;;-0.30;83.30;;;;;;806157;176;26492;-77
2024/01/21 05:19:31;;;;;;;35.47;14.07;;;-0.30;81.90;;;;;;804808;176;26489;-76
2024/01/21 05:21:58;;;;;;;34.57;14.50;;;-0.30;85.30;;;;;;792667;180;26533;-77
2024/01/21 05:24:25;;;;;;;34.40;15.30;;;-0.30;84.20;;;;;;806329;172;26496;-77
2024/01/21 05:26:51;;;;;;;35.37;14.53;;;-0.40;83.70;;;;;;806656;175;27028;-77
2024/01/21 05:29:18;;;;;;;34.33;14.13;;;-0.40;82.70;;;;;;796934;179;26476;-77
2024/01/21 05:31:44;;;;;;;38.20;14.50;;;-0.40;82.70;;;;;;797747;179;27083;-77
2024/01/21 05:34:11;;;;;;;33.73;15.07;;;-0.40;83.30;;;;;;811621;176;26503;-78
2024/01/21 05:36:37;;;;;;;28.47;13.53;;;-0.40;82.10;;;;;;808539;176;28112;-77
2024/01/21 05:39:04;;;;;;;37.07;15.30;;;-0.30;82.30;;;;;;803300;177;26436;-78
2024/01/21 05:41:31;;;;;;;38.33;15.17;;;-0.40;83.00;;;;;;807757;176;26453;-78
2024/01/21 05:43:58;;;;;;;34.17;16.20;;;-0.40;82.00;;;;;;795973;178;26486;-77
2024/01/21 05:46:24;;;;;;;35.63;14.70;;;-0.30;81.80;;;;;;799446;179;26449;-77
2024/01/21 05:48:50;;;;;;;27.47;14.07;;;-0.30;83.50;;;;;;808583;176;26447;-78
2024/01/21 05:51:17;;;;;;;34.73;14.40;;;-0.30;82.50;;;;;;806480;176;26428;-77
2024/01/21 05:53:43;;;;;;;31.90;13.20;;;-0.30;81.90;;;;;;790671;180;26466;-78
2024/01/21 05:56:11;;;;;;;31.97;14.47;;;-0.40;84.10;;;;;;809355;176;27278;-77
2024/01/21 05:58:37;;;;;;;31.27;13.93;;;-0.40;83.10;;;;;;790582;181;26993;-77
2024/01/21 06:01:04;;;;;;;30.20;14.83;;;-0.40;83.10;;;;;;808860;175;26469;-79
2024/01/21 06:03:31;;;;;;;35.37;15.30;;;-0.40;81.40;;;;;;806909;176;26450;-78
2024/01/21 06:05:57;;;;;;;30.53;12.53;;;-0.40;83.80;;;;;;796199;180;26494;-77
2024/01/21 06:08:24;;;;;;;34.30;14.77;;;-0.40;83.70;;;;;;788561;180;26459;-77
2024/01/21 06:10:50;;;;;;;32.37;14.47;;;-0.40;85.20;;;;;;803881;176;26433;-77
2024/01/21 06:13:17;;;;;;;33.57;13.93;;;-0.40;84.90;;;;;;787926;180;26513;-78
2024/01/21 06:15:44;;;;;;;28.17;13.63;;;-0.40;87.50;;;;;;806433;175;26525;-78
2024/01/21 06:18:10;;;;;;;34.60;14.67;;;-0.40;84.60;;;;;;806372;176;26450;-78
2024/01/21 06:20:37;;;;;;;32.63;14.00;;;-0.50;83.70;;;;;;789112;180;26504;-77
2024/01/21 06:23:03;;;;;;;34.73;14.93;;;-0.50;85.30;;;;;;808105;176;26512;-79
2024/01/21 06:25:30;;;;;;;30.53;14.37;;;-0.40;84.30;;;;;;804181;176;26595;-78
2024/01/21 06:27:57;;;;;;;31.60;14.60;;;-0.40;85.50;;;;;;789780;180;27076;-78
2024/01/21 06:30:23;;;;;;;30.20;14.67;;;-0.40;85.70;;;;;;790633;180;26504;-77
2024/01/21 06:32:50;;;;;;;28.93;12.23;;;-0.30;83.80;;;;;;805554;177;26441;-79
2024/01/21 06:35:16;;;;;;;30.87;14.33;;;-0.30;82.90;;;;;;809070;176;26476;-78
2024/01/21 06:37:43;;;;;;;36.17;14.77;;;-0.30;82.90;;;;;;794608;177;26511;-78
2024/01/21 06:40:10;;;;;;;28.77;13.67;;;-0.30;85.40;;;;;;804731;176;26551;-78
2024/01/21 06:42:36;;;;;;;35.90;15.17;;;-0.20;83.10;;;;;;805915;176;26527;-77
2024/01/21 06:45:03;;;;;;;29.37;14.37;;;-0.30;84.00;;;;;;806443;173;27422;-78
2024/01/21 06:47:30;;;;;;;37.73;14.37;;;-0.20;83.40;;;;;;808047;175;26458;-78
2024/01/21 06:49:56;;;;;;;31.30;13.77;;;-0.30;83.00;;;;;;804614;176;26510;-77
2024/01/21 06:52:23;;;;;;;31.10;14.53;;;-0.30;83.60;;;;;;787221;180;26547;-77
2024/01/21 06:54:50;;;;;;;33.90;14.47;;;-0.30;83.80;;;;;;813868;175;26427;-77
2024/01/21 06:57:16;;;;;;;39.17;15.07;;;-0.20;86.20;;;;;;815012;172;26454;-77
2024/01/21 06:59:43;;;;;;;34.40;13.97;;;-0.20;85.60;;;;;;806339;176;26448;-78
2024/01/21 07:02:09;;;;;;;33.40;14.43;;;-0.20;86.70;;;;;;792566;180;27093;-78
2024/01/21 07:04:36;;;;;;;33.87;13.57;;;-0.20;86.00;;;;;;809714;176;26524;-75
2024/01/21 07:07:03;;;;;;;30.83;13.67;;;-0.20;85.40;;;;;;806525;176;26476;-75
2024/01/21 07:09:29;;;;;;;29.40;13.37;;;-0.10;86.70;;;;;;787513;180;28121;-73
2024/01/21 07:11:56;;;;;;;31.13;13.70;;;-0.10;87.40;;;;;;813597;175;26423;-75
2024/01/21 07:14:23;;;;;;;31.27;13.97;;;0.00;87.40;;;;;;819626;172;26494;-77
2024/01/21 07:16:49;;;;;;;30.93;14.50;;;0.00;85.80;;;;;;797480;178;26485;-78
2024/01/21 07:19:16;;;;;;;30.03;13.97;;;0.00;84.50;;;;;;820840;172;26433;-77
2024/01/21 07:21:43;;;;;;;24.40;10.87;;;0.00;84.50;;;;;;822780;172;26415;-78
2024/01/21 07:24:09;;;;;;;33.13;14.57;;;0.00;85.60;;;;;;820565;172;26481;-78
2024/01/21 07:26:36;;;;;;;30.47;13.27;;;0.00;86.10;;;;;;783058;182;26496;-78
2024/01/21 07:29:02;;;;;;;32.23;14.70;;;0.10;87.00;;;;;;797241;179;27050;-77
2024/01/21 07:31:29;;;;;;;34.17;13.93;;;0.10;86.70;;;;;;816769;175;26409;-78
2024/01/21 07:33:56;;;;;;;33.73;13.43;;;0.10;84.20;;;;;;798393;179;26471;-79
2024/01/21 07:36:22;;;;;;;31.90;13.20;;;0.10;83.90;;;;;;796621;179;26468;-78
2024/01/21 07:38:49;;;;;;;28.07;13.23;;;0.10;83.70;;;;;;786815;179;26487;-78
2024/01/21 07:41:15;;;;;;;29.63;13.70;;;0.20;83.40;;;;;;790833;181;26526;-78
2024/01/21 07:43:42;;;;;;;28.67;13.00;;;0.20;83.10;;;;;;788554;179;26440;-78
2024/01/21 07:46:09;;;;;;;26.03;12.30;;;0.20;83.50;;;;;;783214;181;26550;-80
2024/01/21 07:48:35;;;;;;;26.87;13.43;;;0.20;82.80;;;;;;785596;181;27052;-79
2024/01/21 07:51:02;;;;;;;32.13;13.73;;;0.30;83.40;;;;;;784981;181;26596;-78
2024/01/21 07:53:28;;;;;;;27.53;13.73;;;0.30;84.60;;;;;;816560;176;26408;-80
2024/01/21 07:55:55;;;;;;;30.50;14.50;;;0.30;84.00;;;;;;800937;180;26456;-77
2024/01/21 07:58:22;;;;;;;33.63;15.60;;;0.40;84.80;;;;;;798175;179;27015;-79
2024/01/21 08:00:48;;;;;;;30.97;15.57;;;0.30;85.00;;;;;;800704;179;26435;-77
2024/01/21 08:03:15;;;;;;;27.97;14.13;;;0.40;86.70;;;;;;794023;180;26501;-78
2024/01/21 08:05:41;;;;;;;29.13;14.30;;;0.40;85.70;;;;;;794176;179;26461;-76
2024/01/21 08:08:08;;;;;;;29.07;13.37;;;0.40;87.10;;;;;;796008;176;26460;-78
2024/01/21 08:10:35;;;;;;;29.00;13.47;;;0.40;87.50;;;;;;788824;179;26435;-77
2024/01/21 08:13:16;;;;;;;25.47;13.07;;;0.40;84.90;;;;;;774976;181;26495;-77
2024/01/21 08:15:43;;;;;;;32.37;14.27;;;0.40;85.80;;;;;;785211;180;26457;-79
2024/01/21 08:18:09;;;;;;;28.13;12.50;;;0.50;86.00;;;;;;788170;181;26470;-77
2024/01/21 08:20:36;;;;;;;31.70;13.00;;;0.50;84.90;;;;;;801872;178;26431;-78
2024/01/21 08:23:03;;;;;;;28.90;13.80;;;0.50;84.80;;;;;;819221;175;26411;-78
2024/01/21 08:25:29;;;;;;;29.33;13.67;;;0.60;86.10;;;;;;796266;178;26429;-77
2024/01/21 08:27:56;;;;;;;30.40;14.50;;;0.60;85.00;;;;;;816365;176;26403;-77
2024/01/21 08:30:23;;;;;;;32.47;12.90;;;0.60;85.70;;;;;;802402;179;26449;-77
2024/01/21 08:32:49;;;;;;;27.53;12.83;;;0.70;85.10;;;;;;791977;181;26465;-78
2024/01/21 08:35:19;;;;;;;30.10;14.37;;;0.70;84.90;;;;;;801427;167;26461;-81
2024/01/21 08:37:43;;;;;;;31.43;15.03;;;0.80;84.60;;;;;;816498;173;26390;-80
2024/01/21 08:40:10;;;;;;;30.87;12.50;;;0.90;84.50;;;;;;796840;176;26571;-80
2024/01/21 08:42:38;;;;;;;29.73;14.47;;;0.90;82.90;;;;;;790895;176;26446;-79
2024/01/21 08:45:06;;;;;;;28.27;13.07;;;0.90;83.40;;;;;;814461;171;26417;-79
2024/01/21 08:47:33;;;;;;;30.73;13.93;;;0.90;82.90;;;;;;800729;180;26436;-80
2024/01/21 08:49:59;;;;;;;28.93;13.37;;;1.00;83.70;;;;;;800962;179;26450;-80
2024/01/21 08:52:26;;;;;;;29.43;13.87;;;1.00;81.80;;;;;;789585;179;26490;-79
2024/01/21 08:54:53;;;;;;;31.23;13.53;;;1.10;83.10;;;;;;791414;180;26473;-77
2024/01/21 08:57:20;;;;;;;28.73;14.07;;;1.10;83.10;;;;;;795975;180;26984;-78
2024/01/21 08:59:46;;;;;;;33.07;14.57;;;1.10;82.50;;;;;;778642;185;26497;-76
2024/01/21 09:02:13;;;;;;;24.43;12.90;;;1.20;80.50;;;;;;815267;176;26413;-79
2024/01/21 09:04:40;;;;;;;28.80;14.93;;;1.20;80.90;;;;;;814423;176;26462;-80
2024/01/21 09:07:07;;;;;;;33.23;15.17;;;1.30;79.90;;;;;;799675;176;26440;-76
2024/01/21 09:09:34;;;;;;;31.30;14.73;;;1.30;81.50;;;;;;797726;180;26427;-79
2024/01/21 09:12:00;;;;;;;29.53;15.83;;;1.40;81.10;;;;;;785190;179;28152;-78
2024/01/21 09:14:26;;;;;;;29.13;14.70;;;1.50;80.60;;;;;;787978;181;26470;-79
2024/01/21 09:16:53;;;;;;;31.87;15.10;;;1.60;78.60;;;;;;820186;174;26410;-77
2024/01/21 09:19:20;;;;;;;32.23;16.27;;;1.70;77.90;;;;;;801239;179;26435;-78
2024/01/21 09:21:46;;;;;;;31.90;14.53;;;1.80;76.90;;;;;;800218;178;26433;-78
2024/01/21 09:24:14;;;;;;;33.53;15.93;;;1.80;79.70;;;;;;788392;181;26478;-79
2024/01/21 09:26:39;;;;;;;26.17;14.43;;;1.90;79.20;;;;;;790944;181;26461;-79
2024/01/21 09:29:06;;;;;;;29.13;13.83;;;2.00;79.30;;;;;;818830;175;26408;-78
2024/01/21 09:31:34;;;;;;;31.30;15.13;;;2.00;78.60;;;;;;800407;179;28028;-74
2024/01/21 09:34:00;;;;;;;31.43;15.23;;;2.10;78.30;;;;;;819442;170;26423;-78
2024/01/21 09:36:26;;;;;;;33.97;14.93;;;2.20;78.10;;;;;;819367;175;26429;-80
2024/01/21 09:38:53;;;;;;;32.67;15.37;;;2.30;78.50;;;;;;798863;179;27550;-79
2024/01/21 09:41:35;;;;;;;35.30;14.00;;;2.40;77.70;;;;;;789179;181;26452;-80
2024/01/21 09:44:02;;;;;;;32.07;15.00;;;2.30;77.90;;;;;;793606;178;26721;-78
2024/01/21 09:46:28;;;;;;;33.10;15.43;;;2.50;76.30;;;;;;797208;177;26469;-78
2024/01/21 09:48:55;;;;;;;31.60;15.83;;;2.60;77.50;;;;;;795527;179;26526;-74
2024/01/21 09:51:22;;;;;;;37.20;15.23;;;2.50;74.90;;;;;;817117;175;26470;-78
2024/01/21 09:53:49;;;;;;;42.80;20.43;;;2.70;74.30;;;;;;797849;176;27041;-79
2024/01/21 09:56:15;;;;;;;43.20;18.87;;;2.90;74.80;;;;;;799143;179;26452;-79
2024/01/21 09:58:46;;;;;;;36.93;17.00;;;2.90;74.10;;;;;;815935;175;26410;-79
2024/01/21 10:01:13;;;;;;;39.50;16.90;;;2.90;74.20;;;;;;801582;179;26452;-79
2024/01/21 10:03:40;;;;;;;42.67;19.70;;;2.90;72.80;;;;;;788542;181;26471;-80
2024/01/21 10:06:07;;;;;;;33.03;16.60;;;2.90;74.50;;;;;;813202;176;26470;-78
2024/01/21 10:08:33;;;;;;;35.33;16.97;;;3.00;73.80;;;;;;813026;177;26393;-80
2024/01/21 10:11:02;;;;;;;42.10;19.77;;;3.20;75.00;;;;;;815360;176;26414;-78
2024/01/21 10:13:27;;;;;;;34.40;15.93;;;3.30;71.90;;;;;;786626;180;26542;-79
2024/01/21 10:15:54;;;;;;;37.00;17.60;;;3.30;71.00;;;;;;823329;171;26408;-77
2024/01/21 10:18:20;;;;;;;37.73;17.67;;;3.20;70.70;;;;;;799454;179;26463;-80
2024/01/21 10:20:47;;;;;;;42.80;20.90;;;3.10;70.70;;;;;;819349;175;26445;-80
2024/01/21 10:23:14;;;;;;;42.97;20.37;;;3.20;70.40;;;;;;796025;178;26506;-79
2024/01/21 10:25:43;;;;;;;37.00;16.10;;;3.20;70.60;;;;;;815683;176;26413;-80
2024/01/21 10:28:09;;;;;;;38.57;15.33;;;3.20;71.40;;;;;;784931;180;26481;-75
2024/01/21 10:30:34;;;;;;;32.77;16.47;;;3.30;71.40;;;;;;797799;175;28803;-78
2024/01/21 10:33:01;;;;;;;36.10;17.27;;;3.20;71.30;;;;;;797503;176;26492;-80
2024/01/21 10:35:27;;;;;;;29.97;15.10;;;3.20;71.60;;;;;;795033;179;26464;-80
2024/01/21 10:37:54;;;;;;;30.90;14.83;;;3.30;71.40;;;;;;794657;180;26486;-79
2024/01/21 10:40:21;;;;;;;34.93;17.37;;;3.30;71.40;;;;;;794578;180;26553;-78
2024/01/21 10:42:53;;;;;;;30.80;15.57;;;3.30;71.20;;;;;;798461;179;27108;-79
2024/01/21 10:45:14;;;;;;;34.67;15.73;;;3.40;72.30;;;;;;786855;180;26452;-81
2024/01/21 10:47:43;;;;;;;29.33;14.63;;;3.50;71.30;;;;;;796483;178;26434;-79
2024/01/21 10:50:09;;;;;;;30.33;13.93;;;3.50;71.20;;;;;;815671;173;26408;-78
2024/01/21 10:52:36;;;;;;;24.60;13.43;;;3.30;70.00;;;;;;802304;179;26451;-78
2024/01/21 10:55:03;;;;;;;31.43;15.97;;;3.30;72.40;;;;;;789121;179;26429;-79
2024/01/21 11:08:30;;;;;;;29.40;15.53;;;3.50;73.30;;;;;;819517;175;26383;-76
2024/01/21 11:11:00;;;;;;;35.50;15.70;;;3.60;74.00;;;;;;814633;177;27049;-79
2024/01/21 11:13:43;;;;;;;31.57;17.57;;;3.70;74.60;;;;;;815774;175;26447;-81
2024/01/21 11:16:14;;;;;;;32.57;16.37;;;3.70;73.40;;;;;;813990;173;26459;-81
2024/01/21 11:29:32;;;;;;;33.50;16.03;;;4.20;74.80;;;;;;813893;176;26483;-80
2024/01/21 11:40:17;;;;;;;29.27;14.73;;;4.10;75.30;;;;;;772427;185;26974;-79
2024/01/21 11:42:49;;;;;;;29.73;14.27;;;4.10;76.30;;;;;;777084;183;26507;-78
2024/01/21 11:45:11;;;;;;;31.60;16.07;;;4.20;76.30;;;;;;774306;183;26635;-80
2024/01/21 11:47:37;;;;;;;28.83;14.33;;;4.40;73.70;;;;;;787229;180;26438;-80
2024/01/21 11:50:04;;;;;;;35.13;16.37;;;4.50;74.40;;;;;;775849;183;26475;-81
2024/01/21 11:52:32;;;;;;;31.60;15.57;;;4.50;74.40;;;;;;788499;180;26467;-82
2024/01/21 11:54:58;;;;;;;29.67;14.37;;;4.50;74.60;;;;;;786615;180;26477;-80
2024/01/21 11:57:25;;;;;;;32.53;15.03;;;4.40;72.90;;;;;;788062;180;26460;-80
2024/01/21 11:59:51;;;;;;;29.47;15.07;;;4.30;75.60;;;;;;787458;182;26463;-80
2024/01/21 12:02:19;;;;;;;29.67;15.17;;;4.40;75.60;;;;;;789704;180;26474;-81
2024/01/21 12:04:46;;;;;;;29.20;14.93;;;4.50;75.90;;;;;;787250;179;26493;-80
2024/01/21 12:07:12;;;;;;;32.67;16.17;;;4.60;75.10;;;;;;791930;180;26462;-81
2024/01/21 12:09:39;;;;;;;30.33;15.37;;;4.70;72.70;;;;;;788914;180;26487;-79
2024/01/21 12:12:06;;;;;;;32.07;15.97;;;4.80;74.40;;;;;;782777;181;26463;-80
2024/01/21 12:14:33;;;;;;;30.93;16.50;;;4.90;71.70;;;;;;784012;182;26484;-81
2024/01/21 12:17:00;;;;;;;28.93;15.40;;;4.80;71.90;;;;;;792137;180;26450;-79
2024/01/21 12:19:27;;;;;;;27.97;14.20;;;5.00;73.80;;;;;;792341;180;26455;-78
2024/01/21 12:21:54;;;;;;;31.70;16.53;;;4.90;70.40;;;;;;782431;180;26482;-78
2024/01/21 12:24:22;;;;;;;33.20;16.40;;;4.90;72.20;;;;;;782296;181;26487;-79
2024/01/21 12:26:48;;;;;;;28.97;15.77;;;4.90;73.50;;;;;;785923;180;27094;-79
2024/01/21 12:29:15;;;;;;;32.93;15.93;;;4.80;73.50;;;;;;785229;180;26767;-77
2024/01/21 12:31:42;;;;;;;30.93;16.60;;;4.90;73.20;;;;;;768461;180;26482;-77
2024/01/21 12:34:08;;;;;;;31.17;15.80;;;4.80;75.30;;;;;;786403;180;26543;-77
2024/01/21 12:36:35;;;;;;;34.43;17.27;;;4.80;75.90;;;;;;785896;179;26538;-78
2024/01/21 12:39:03;;;;;;;29.80;15.67;;;4.90;75.30;;;;;;789060;180;26478;-75
2024/01/21 12:41:28;;;;;;;31.03;15.93;;;5.00;75.90;;;;;;788353;180;26507;-78
2024/01/21 12:43:55;;;;;;;29.20;15.50;;;4.90;75.00;;;;;;790182;180;26477;-79
2024/01/21 12:46:21;;;;;;;30.83;16.23;;;4.80;77.10;;;;;;786540;180;26519;-78
2024/01/21 12:48:48;;;;;;;29.90;15.50;;;4.80;77.00;;;;;;786724;180;26446;-79
2024/01/21 12:51:17;;;;;;;28.57;15.07;;;4.80;79.30;;;;;;794454;178;26467;-81
2024/01/21 12:53:41;;;;;;;33.37;16.27;;;5.00;78.80;;;;;;793205;180;27147;-77
2024/01/21 12:56:08;;;;;;;31.70;15.47;;;5.00;78.70;;;;;;787688;180;26461;-79
2024/01/21 12:58:36;;;;;;;33.43;16.87;;;5.10;79.00;;;;;;791784;177;26492;-79